sensor_id;sensor_type;location;lat;lon;timestamp;pressure;altitude;pressure_sealevel;temperature;humidity
4346;BME280;2186;49.866;7.986;2023-06-22T00:01:18;100343.66;;;24.84;80.40
4346;BME280;2186;49.866;7.986;2023-06-22T00:03:44;100342.84;;;24.72;81.92
4346;BME280;2186;49.866;7.986;2023-06-22T00:06:11;100329.41;;;24.70;83.34
4346;BME280;2186;49.866;7.986;2023-06-22T00:08:38;100317.25;;;24.74;85.29
4346;BME280;2186;49.866;7.986;2023-06-22T00:11:04;100321.50;;;24.67;86.69
4346;BME280;2186;49.866;7.986;2023-06-22T00:13:31;100313.03;;;24.40;89.68
4346;BME280;2186;49.866;7.986;2023-06-22T00:15:57;100313.28;;;24.58;91.14
4346;BME280;2186;49.866;7.986;2023-06-22T00:18:24;100318.69;;;24.37;94.64
4346;BME280;2186;49.866;7.986;2023-06-22T00:20:55;100310.50;;;24.16;94.32
4346;BME280;2186;49.866;7.986;2023-06-22T00:23:25;100316.72;;;24.07;97.88
4346;BME280;2186;49.866;7.986;2023-06-22T00:25:51;100325.91;;;23.83;97.47
4346;BME280;2186;49.866;7.986;2023-06-22T00:28:18;100341.72;;;24.21;97.20
4346;BME280;2186;49.866;7.986;2023-06-22T00:30:45;100377.75;;;23.91;100.00
4346;BME280;2186;49.866;7.986;2023-06-22T00:33:12;100399.25;;;23.72;100.00
4346;BME280;2186;49.866;7.986;2023-06-22T00:35:38;100416.41;;;23.73;100.00
4346;BME280;2186;49.866;7.986;2023-06-22T00:38:07;100433.94;;;23.57;100.00
4346;BME280;2186;49.866;7.986;2023-06-22T00:40:34;100454.00;;;23.44;100.00
4346;BME280;2186;49.866;7.986;2023-06-22T00:43:01;100462.03;;;23.45;100.00
4346;BME280;2186;49.866;7.986;2023-06-22T00:45:28;100454.47;;;23.38;100.00
4346;BME280;2186;49.866;7.986;2023-06-22T00:47:56;100421.69;;;23.52;100.00
4346;BME280;2186;49.866;7.986;2023-06-22T00:50:25;100370.38;;;22.69;100.00
4346;BME280;2186;49.866;7.986;2023-06-22T00:52:56;100299.47;;;22.86;100.00
4346;BME280;2186;49.866;7.986;2023-06-22T00:55:23;100248.75;;;22.42;100.00
4346;BME280;2186;49.866;7.986;2023-06-22T00:57:52;100233.94;;;22.24;100.00
4346;BME280;2186;49.866;7.986;2023-06-22T01:00:24;100230.09;;;21.80;100.00
4346;BME280;2186;49.866;7.986;2023-06-22T01:02:52;100237.78;;;21.97;100.00
4346;BME280;2186;49.866;7.986;2023-06-22T01:05:21;100249.25;;;22.36;100.00
4346;BME280;2186;49.866;7.986;2023-06-22T01:13:02;100278.81;;;22.50;100.00
4346;BME280;2186;49.866;7.986;2023-06-22T01:15:36;100284.53;;;22.81;100.00
4346;BME280;2186;49.866;7.986;2023-06-22T01:18:04;100297.47;;;22.77;100.00
4346;BME280;2186;49.866;7.986;2023-06-22T01:20:34;100314.19;;;22.71;100.00
4346;BME280;2186;49.866;7.986;2023-06-22T01:28:47;100321.69;;;22.56;100.00
4346;BME280;2186;49.866;7.986;2023-06-22T01:31:19;100307.44;;;22.65;100.00
4346;BME280;2186;49.866;7.986;2023-06-22T01:33:54;100298.78;;;22.49;100.00
4346;BME280;2186;49.866;7.986;2023-06-22T01:36:22;100270.53;;;22.40;100.00
4346;BME280;2186;49.866;7.986;2023-06-22T01:38:49;100267.63;;;22.20;100.00
4346;BME280;2186;49.866;7.986;2023-06-22T01:41:17;100276.75;;;22.07;100.00
4346;BME280;2186;49.866;7.986;2023-06-22T01:43:45;100271.22;;;22.20;100.00
4346;BME280;2186;49.866;7.986;2023-06-22T01:46:12;100277.28;;;22.24;100.00
4346;BME280;2186;49.866;7.986;2023-06-22T01:48:39;100272.34;;;22.29;100.00
4346;BME280;2186;49.866;7.986;2023-06-22T01:51:05;100271.13;;;22.33;100.00
4346;BME280;2186;49.866;7.986;2023-06-22T01:53:32;100264.34;;;22.27;100.00
4346;BME280;2186;49.866;7.986;2023-06-22T01:55:59;100258.22;;;22.36;100.00
4346;BME280;2186;49.866;7.986;2023-06-22T01:58:27;100249.00;;;22.39;100.00
4346;BME280;2186;49.866;7.986;2023-06-22T02:00:59;100258.78;;;22.86;100.00
4346;BME280;2186;49.866;7.986;2023-06-22T02:03:32;100278.03;;;22.83;100.00
4346;BME280;2186;49.866;7.986;2023-06-22T02:06:15;100296.94;;;22.61;100.00
4346;BME280;2186;49.866;7.986;2023-06-22T02:08:56;100293.72;;;22.56;100.00
4346;BME280;2186;49.866;7.986;2023-06-22T02:11:26;100303.22;;;22.61;100.00
4346;BME280;2186;49.866;7.986;2023-06-22T02:13:53;100315.03;;;22.60;100.00
4346;BME280;2186;49.866;7.986;2023-06-22T02:16:21;100318.69;;;22.83;100.00
4346;BME280;2186;49.866;7.986;2023-06-22T02:18:49;100312.19;;;23.19;100.00
4346;BME280;2186;49.866;7.986;2023-06-22T02:21:19;100305.75;;;22.87;100.00
4346;BME280;2186;49.866;7.986;2023-06-22T02:23:46;100302.91;;;22.88;100.00
4346;BME280;2186;49.866;7.986;2023-06-22T02:26:15;100288.75;;;22.96;100.00
4346;BME280;2186;49.866;7.986;2023-06-22T02:28:42;100283.28;;;22.73;100.00
4346;BME280;2186;49.866;7.986;2023-06-22T02:31:08;100258.13;;;22.60;100.00
4346;BME280;2186;49.866;7.986;2023-06-22T02:33:35;100248.69;;;22.08;100.00
4346;BME280;2186;49.866;7.986;2023-06-22T02:36:01;100239.84;;;21.94;100.00
4346;BME280;2186;49.866;7.986;2023-06-22T02:38:31;100232.19;;;22.11;100.00
4346;BME280;2186;49.866;7.986;2023-06-22T02:41:01;100231.97;;;22.26;100.00
4346;BME280;2186;49.866;7.986;2023-06-22T02:43:27;100231.13;;;22.25;100.00
4346;BME280;2186;49.866;7.986;2023-06-22T02:45:54;100229.16;;;22.27;100.00
4346;BME280;2186;49.866;7.986;2023-06-22T02:48:21;100228.78;;;22.21;100.00
4346;BME280;2186;49.866;7.986;2023-06-22T02:50:47;100224.31;;;22.20;100.00
4346;BME280;2186;49.866;7.986;2023-06-22T02:53:14;100222.16;;;22.58;100.00
4346;BME280;2186;49.866;7.986;2023-06-22T02:55:40;100224.00;;;22.46;100.00
4346;BME280;2186;49.866;7.986;2023-06-22T02:58:07;100212.75;;;22.17;100.00
4346;BME280;2186;49.866;7.986;2023-06-22T03:00:34;100206.47;;;22.17;100.00
4346;BME280;2186;49.866;7.986;2023-06-22T03:03:01;100209.19;;;22.28;100.00
4346;BME280;2186;49.866;7.986;2023-06-22T03:05:27;100214.00;;;22.25;100.00
4346;BME280;2186;49.866;7.986;2023-06-22T03:07:54;100212.72;;;22.06;100.00
4346;BME280;2186;49.866;7.986;2023-06-22T03:10:20;100208.06;;;22.08;100.00
4346;BME280;2186;49.866;7.986;2023-06-22T03:12:47;100207.22;;;22.30;100.00
4346;BME280;2186;49.866;7.986;2023-06-22T03:15:13;100202.28;;;22.13;100.00
4346;BME280;2186;49.866;7.986;2023-06-22T03:17:40;100214.75;;;22.27;100.00
4346;BME280;2186;49.866;7.986;2023-06-22T03:20:09;100209.72;;;22.56;100.00
4346;BME280;2186;49.866;7.986;2023-06-22T03:22:39;100219.31;;;22.26;100.00
4346;BME280;2186;49.866;7.986;2023-06-22T03:25:08;100208.69;;;22.12;100.00
4346;BME280;2186;49.866;7.986;2023-06-22T03:27:40;100203.41;;;22.22;100.00
4346;BME280;2186;49.866;7.986;2023-06-22T03:30:08;100197.53;;;22.72;100.00
4346;BME280;2186;49.866;7.986;2023-06-22T03:32:35;100201.09;;;22.39;100.00
4346;BME280;2186;49.866;7.986;2023-06-22T03:35:02;100195.03;;;22.13;100.00
4346;BME280;2186;49.866;7.986;2023-06-22T03:37:29;100196.50;;;22.17;100.00
4346;BME280;2186;49.866;7.986;2023-06-22T03:39:55;100200.84;;;21.96;100.00
4346;BME280;2186;49.866;7.986;2023-06-22T03:42:21;100197.66;;;22.02;100.00
4346;BME280;2186;49.866;7.986;2023-06-22T03:44:48;100206.44;;;22.06;100.00
4346;BME280;2186;49.866;7.986;2023-06-22T03:47:14;100212.44;;;21.98;100.00
4346;BME280;2186;49.866;7.986;2023-06-22T03:49:41;100213.88;;;21.91;100.00
4346;BME280;2186;49.866;7.986;2023-06-22T03:52:07;100208.50;;;22.02;100.00
4346;BME280;2186;49.866;7.986;2023-06-22T03:54:34;100213.91;;;22.02;100.00
4346;BME280;2186;49.866;7.986;2023-06-22T03:57:01;100208.81;;;21.86;100.00
4346;BME280;2186;49.866;7.986;2023-06-22T03:59:27;100210.69;;;21.97;100.00
4346;BME280;2186;49.866;7.986;2023-06-22T04:01:54;100215.25;;;21.97;100.00
4346;BME280;2186;49.866;7.986;2023-06-22T04:04:20;100214.16;;;21.99;100.00
4346;BME280;2186;49.866;7.986;2023-06-22T04:06:47;100217.56;;;21.90;100.00
4346;BME280;2186;49.866;7.986;2023-06-22T04:09:13;100220.50;;;21.87;100.00
4346;BME280;2186;49.866;7.986;2023-06-22T04:11:40;100225.22;;;21.96;100.00
4346;BME280;2186;49.866;7.986;2023-06-22T04:14:06;100220.25;;;21.90;100.00
4346;BME280;2186;49.866;7.986;2023-06-22T04:16:33;100230.47;;;21.86;100.00
4346;BME280;2186;49.866;7.986;2023-06-22T04:18:59;100230.09;;;22.15;100.00
4346;BME280;2186;49.866;7.986;2023-06-22T04:21:26;100233.59;;;22.04;100.00
4346;BME280;2186;49.866;7.986;2023-06-22T04:23:52;100228.19;;;22.04;100.00
4346;BME280;2186;49.866;7.986;2023-06-22T04:26:19;100235.16;;;22.08;100.00
4346;BME280;2186;49.866;7.986;2023-06-22T04:28:47;100226.28;;;22.17;100.00
4346;BME280;2186;49.866;7.986;2023-06-22T04:31:18;100229.94;;;22.05;100.00
4346;BME280;2186;49.866;7.986;2023-06-22T04:33:47;100218.03;;;22.08;100.00
4346;BME280;2186;49.866;7.986;2023-06-22T04:36:13;100223.31;;;22.09;100.00
4346;BME280;2186;49.866;7.986;2023-06-22T04:38:40;100230.72;;;22.07;100.00
4346;BME280;2186;49.866;7.986;2023-06-22T04:41:06;100220.75;;;21.84;100.00
4346;BME280;2186;49.866;7.986;2023-06-22T04:43:34;100220.75;;;22.08;100.00
4346;BME280;2186;49.866;7.986;2023-06-22T04:46:00;100221.91;;;22.39;100.00
4346;BME280;2186;49.866;7.986;2023-06-22T04:48:30;100215.56;;;22.16;100.00
4346;BME280;2186;49.866;7.986;2023-06-22T04:51:01;100216.56;;;22.15;100.00
4346;BME280;2186;49.866;7.986;2023-06-22T04:53:31;100215.69;;;22.14;100.00
4346;BME280;2186;49.866;7.986;2023-06-22T04:55:57;100210.31;;;22.26;100.00
4346;BME280;2186;49.866;7.986;2023-06-22T04:58:24;100218.69;;;22.34;100.00
4346;BME280;2186;49.866;7.986;2023-06-22T05:00:53;100214.78;;;22.60;100.00
4346;BME280;2186;49.866;7.986;2023-06-22T05:03:19;100219.47;;;22.69;100.00
4346;BME280;2186;49.866;7.986;2023-06-22T05:05:48;100225.13;;;23.11;100.00
4346;BME280;2186;49.866;7.986;2023-06-22T05:08:16;100213.44;;;23.54;100.00
4346;BME280;2186;49.866;7.986;2023-06-22T05:10:42;100215.97;;;23.78;100.00
4346;BME280;2186;49.866;7.986;2023-06-22T05:13:29;100215.59;;;24.24;100.00
4346;BME280;2186;49.866;7.986;2023-06-22T05:15:55;100206.94;;;24.51;100.00
4346;BME280;2186;49.866;7.986;2023-06-22T05:18:28;100198.28;;;24.97;98.42
4346;BME280;2186;49.866;7.986;2023-06-22T05:20:56;100195.13;;;25.42;96.84
4346;BME280;2186;49.866;7.986;2023-06-22T05:23:22;100193.84;;;26.14;94.31
4346;BME280;2186;49.866;7.986;2023-06-22T05:25:49;100190.72;;;25.80;89.50
4346;BME280;2186;49.866;7.986;2023-06-22T05:28:15;100194.25;;;25.42;91.32
4346;BME280;2186;49.866;7.986;2023-06-22T05:30:42;100195.69;;;25.46;91.99
4346;BME280;2186;49.866;7.986;2023-06-22T05:33:09;100202.09;;;24.85;92.30
4346;BME280;2186;49.866;7.986;2023-06-22T05:35:35;100195.25;;;24.30;93.63
4346;BME280;2186;49.866;7.986;2023-06-22T05:38:02;100193.13;;;24.64;93.03
4346;BME280;2186;49.866;7.986;2023-06-22T05:40:28;100186.19;;;24.50;93.89
4346;BME280;2186;49.866;7.986;2023-06-22T05:42:55;100189.97;;;24.99;93.03
4346;BME280;2186;49.866;7.986;2023-06-22T05:45:21;100195.94;;;24.52;93.55
4346;BME280;2186;49.866;7.986;2023-06-22T05:47:48;100198.09;;;24.89;93.60
4346;BME280;2186;49.866;7.986;2023-06-22T05:50:15;100197.25;;;25.29;91.41
4346;BME280;2186;49.866;7.986;2023-06-22T05:52:41;100197.38;;;25.27;91.07
4346;BME280;2186;49.866;7.986;2023-06-22T05:55:08;100193.91;;;25.16;91.32
4346;BME280;2186;49.866;7.986;2023-06-22T05:57:35;100192.91;;;25.17;91.55
4346;BME280;2186;49.866;7.986;2023-06-22T06:00:01;100200.97;;;25.28;91.47
4346;BME280;2186;49.866;7.986;2023-06-22T06:02:32;100204.56;;;25.38;89.40
4346;BME280;2186;49.866;7.986;2023-06-22T06:05:00;100203.72;;;25.37;90.48
4346;BME280;2186;49.866;7.986;2023-06-22T06:07:29;100192.59;;;25.69;89.16
4346;BME280;2186;49.866;7.986;2023-06-22T06:09:56;100200.50;;;25.13;90.20
4346;BME280;2186;49.866;7.986;2023-06-22T06:12:22;100201.53;;;25.31;90.82
4346;BME280;2186;49.866;7.986;2023-06-22T06:14:49;100203.50;;;25.20;90.57
4346;BME280;2186;49.866;7.986;2023-06-22T06:17:17;100210.81;;;25.79;89.39
4346;BME280;2186;49.866;7.986;2023-06-22T06:19:44;100204.72;;;25.56;89.11
4346;BME280;2186;49.866;7.986;2023-06-22T06:22:10;100202.28;;;25.53;89.44
4346;BME280;2186;49.866;7.986;2023-06-22T06:24:37;100208.81;;;25.21;90.31
4346;BME280;2186;49.866;7.986;2023-06-22T06:27:03;100200.94;;;25.08;91.13
4346;BME280;2186;49.866;7.986;2023-06-22T06:29:32;100189.09;;;24.58;93.87
4346;BME280;2186;49.866;7.986;2023-06-22T06:31:58;100181.59;;;25.12;92.76
4346;BME280;2186;49.866;7.986;2023-06-22T06:34:25;100176.78;;;24.94;93.08
4346;BME280;2186;49.866;7.986;2023-06-22T06:36:51;100188.50;;;24.85;94.14
4346;BME280;2186;49.866;7.986;2023-06-22T06:39:18;100183.84;;;25.06;93.98
4346;BME280;2186;49.866;7.986;2023-06-22T06:41:44;100186.53;;;25.37;92.73
4346;BME280;2186;49.866;7.986;2023-06-22T06:44:11;100191.59;;;25.71;91.67
4346;BME280;2186;49.866;7.986;2023-06-22T06:46:37;100191.00;;;26.06;89.94
4346;BME280;2186;49.866;7.986;2023-06-22T06:49:04;100192.44;;;25.71;90.22
4346;BME280;2186;49.866;7.986;2023-06-22T06:51:30;100187.72;;;25.92;90.59
4346;BME280;2186;49.866;7.986;2023-06-22T06:53:57;100184.00;;;25.93;89.55
4346;BME280;2186;49.866;7.986;2023-06-22T06:56:23;100186.25;;;25.59;89.75
4346;BME280;2186;49.866;7.986;2023-06-22T06:58:50;100174.22;;;26.01;88.83
4346;BME280;2186;49.866;7.986;2023-06-22T07:01:17;100185.56;;;26.06;87.01
4346;BME280;2186;49.866;7.986;2023-06-22T07:03:47;100193.28;;;26.01;88.40
4346;BME280;2186;49.866;7.986;2023-06-22T07:06:14;100188.69;;;26.11;87.14
4346;BME280;2186;49.866;7.986;2023-06-22T07:08:40;100188.25;;;26.15;86.55
4346;BME280;2186;49.866;7.986;2023-06-22T07:11:07;100185.56;;;26.06;87.74
4346;BME280;2186;49.866;7.986;2023-06-22T07:13:33;100176.31;;;26.45;84.84
4346;BME280;2186;49.866;7.986;2023-06-22T07:16:00;100168.16;;;26.73;85.20
4346;BME280;2186;49.866;7.986;2023-06-22T07:18:27;100165.41;;;26.45;83.77
4346;BME280;2186;49.866;7.986;2023-06-22T07:20:54;100165.09;;;26.48;83.38
4346;BME280;2186;49.866;7.986;2023-06-22T07:23:20;100166.38;;;26.54;82.50
4346;BME280;2186;49.866;7.986;2023-06-22T07:25:46;100165.81;;;26.88;83.18
4346;BME280;2186;49.866;7.986;2023-06-22T07:28:13;100155.44;;;26.64;83.95
4346;BME280;2186;49.866;7.986;2023-06-22T07:30:39;100156.78;;;27.14;81.60
4346;BME280;2186;49.866;7.986;2023-06-22T07:33:06;100148.94;;;26.74;83.63
4346;BME280;2186;49.866;7.986;2023-06-22T07:35:35;100153.63;;;26.72;83.03
4346;BME280;2186;49.866;7.986;2023-06-22T07:38:01;100146.97;;;26.84;82.31
4346;BME280;2186;49.866;7.986;2023-06-22T07:40:31;100143.41;;;26.84;82.06
4346;BME280;2186;49.866;7.986;2023-06-22T07:42:58;100146.47;;;26.71;83.60
4346;BME280;2186;49.866;7.986;2023-06-22T07:45:25;100153.22;;;26.77;82.41
4346;BME280;2186;49.866;7.986;2023-06-22T07:47:51;100145.53;;;27.18;81.31
4346;BME280;2186;49.866;7.986;2023-06-22T07:50:18;100156.69;;;26.69;81.83
4346;BME280;2186;49.866;7.986;2023-06-22T07:52:44;100154.88;;;26.60;80.45
4346;BME280;2186;49.866;7.986;2023-06-22T07:55:11;100146.09;;;27.21;81.10
4346;BME280;2186;49.866;7.986;2023-06-22T07:57:37;100143.81;;;26.89;81.14
4346;BME280;2186;49.866;7.986;2023-06-22T08:00:05;100138.66;;;27.13;80.62
4346;BME280;2186;49.866;7.986;2023-06-22T08:02:42;100130.34;;;27.15;81.18
4346;BME280;2186;49.866;7.986;2023-06-22T08:05:09;100130.41;;;27.41;80.80
4346;BME280;2186;49.866;7.986;2023-06-22T08:07:56;100118.25;;;27.35;81.11
4346;BME280;2186;49.866;7.986;2023-06-22T08:10:22;100122.16;;;27.15;81.94
4346;BME280;2186;49.866;7.986;2023-06-22T08:12:49;100112.94;;;26.89;81.30
4346;BME280;2186;49.866;7.986;2023-06-22T08:15:15;100110.38;;;27.32;80.82
4346;BME280;2186;49.866;7.986;2023-06-22T08:17:43;100109.88;;;27.55;80.08
4346;BME280;2186;49.866;7.986;2023-06-22T08:20:10;100114.66;;;27.53;79.00
4346;BME280;2186;49.866;7.986;2023-06-22T08:22:43;100113.03;;;28.03;75.95
4346;BME280;2186;49.866;7.986;2023-06-22T08:25:10;100108.97;;;28.08;77.09
4346;BME280;2186;49.866;7.986;2023-06-22T08:27:37;100107.66;;;28.20;76.28
4346;BME280;2186;49.866;7.986;2023-06-22T08:30:04;100090.63;;;27.74;76.46
4346;BME280;2186;49.866;7.986;2023-06-22T08:32:31;100090.22;;;27.51;78.73
4346;BME280;2186;49.866;7.986;2023-06-22T08:34:59;100092.34;;;27.22;77.67
4346;BME280;2186;49.866;7.986;2023-06-22T08:37:26;100083.44;;;27.37;78.73
4346;BME280;2186;49.866;7.986;2023-06-22T08:40:04;100076.75;;;27.93;77.00
4346;BME280;2186;49.866;7.986;2023-06-22T08:42:35;100081.34;;;27.49;77.03
4346;BME280;2186;49.866;7.986;2023-06-22T08:45:02;100086.97;;;27.30;78.27
4346;BME280;2186;49.866;7.986;2023-06-22T08:47:28;100083.28;;;27.57;78.46
4346;BME280;2186;49.866;7.986;2023-06-22T08:49:55;100083.38;;;27.47;77.51
4346;BME280;2186;49.866;7.986;2023-06-22T08:52:23;100080.59;;;28.09;76.28
4346;BME280;2186;49.866;7.986;2023-06-22T08:54:50;100088.59;;;28.02;77.29
4346;BME280;2186;49.866;7.986;2023-06-22T08:57:17;100071.25;;;27.85;76.93
4346;BME280;2186;49.866;7.986;2023-06-22T08:59:44;100071.88;;;27.79;77.32
4346;BME280;2186;49.866;7.986;2023-06-22T09:02:10;100073.38;;;27.73;77.50
4346;BME280;2186;49.866;7.986;2023-06-22T09:04:37;100070.00;;;27.80;77.42
4346;BME280;2186;49.866;7.986;2023-06-22T09:07:04;100081.47;;;28.09;75.94
4346;BME280;2186;49.866;7.986;2023-06-22T09:09:30;100072.44;;;27.65;77.26
4346;BME280;2186;49.866;7.986;2023-06-22T09:11:57;100077.41;;;27.87;77.01
4346;BME280;2186;49.866;7.986;2023-06-22T09:14:23;100062.88;;;28.13;77.33
4346;BME280;2186;49.866;7.986;2023-06-22T09:16:50;100055.38;;;28.49;77.07
4346;BME280;2186;49.866;7.986;2023-06-22T09:19:16;100059.19;;;28.56;75.32
4346;BME280;2186;49.866;7.986;2023-06-22T09:21:43;100063.16;;;28.01;75.19
4346;BME280;2186;49.866;7.986;2023-06-22T09:24:09;100062.88;;;28.13;75.99
4346;BME280;2186;49.866;7.986;2023-06-22T09:26:36;100058.53;;;28.02;76.18
4346;BME280;2186;49.866;7.986;2023-06-22T09:29:05;100045.91;;;28.01;77.14
4346;BME280;2186;49.866;7.986;2023-06-22T09:31:32;100047.59;;;28.02;76.29
4346;BME280;2186;49.866;7.986;2023-06-22T09:33:58;100044.63;;;28.21;75.93
4346;BME280;2186;49.866;7.986;2023-06-22T09:36:25;100045.56;;;28.30;74.50
4346;BME280;2186;49.866;7.986;2023-06-22T09:38:51;100042.75;;;28.22;74.93
4346;BME280;2186;49.866;7.986;2023-06-22T09:41:22;100039.13;;;28.47;74.60
4346;BME280;2186;49.866;7.986;2023-06-22T09:43:49;100028.34;;;28.38;74.33
4346;BME280;2186;49.866;7.986;2023-06-22T09:46:16;100019.41;;;28.27;75.87
4346;BME280;2186;49.866;7.986;2023-06-22T09:48:43;100019.97;;;28.39;74.85
4346;BME280;2186;49.866;7.986;2023-06-22T09:51:09;100019.59;;;28.34;75.33
4346;BME280;2186;49.866;7.986;2023-06-22T09:53:37;100002.41;;;28.16;75.17
4346;BME280;2186;49.866;7.986;2023-06-22T09:56:04;100008.00;;;28.40;75.42
4346;BME280;2186;49.866;7.986;2023-06-22T09:58:32;100004.25;;;28.41;75.04
4346;BME280;2186;49.866;7.986;2023-06-22T10:00:59;99999.69;;;28.58;74.49
4346;BME280;2186;49.866;7.986;2023-06-22T10:03:25;100001.13;;;28.28;73.96
4346;BME280;2186;49.866;7.986;2023-06-22T10:05:52;100002.72;;;28.47;74.24
4346;BME280;2186;49.866;7.986;2023-06-22T10:08:19;100001.25;;;28.69;73.03
4346;BME280;2186;49.866;7.986;2023-06-22T10:10:45;99988.31;;;28.87;72.25
4346;BME280;2186;49.866;7.986;2023-06-22T10:13:12;99981.97;;;28.78;72.76
4346;BME280;2186;49.866;7.986;2023-06-22T10:15:38;99972.63;;;29.22;72.18
4346;BME280;2186;49.866;7.986;2023-06-22T10:18:05;99957.00;;;29.55;70.62
4346;BME280;2186;49.866;7.986;2023-06-22T10:20:32;99956.88;;;29.48;70.38
4346;BME280;2186;49.866;7.986;2023-06-22T10:22:58;99950.13;;;29.75;69.41
4346;BME280;2186;49.866;7.986;2023-06-22T10:25:26;99942.97;;;29.41;69.43
4346;BME280;2186;49.866;7.986;2023-06-22T10:27:53;99945.69;;;29.58;69.45
4346;BME280;2186;49.866;7.986;2023-06-22T10:30:19;99949.28;;;29.42;68.38
4346;BME280;2186;49.866;7.986;2023-06-22T10:32:46;99939.91;;;29.61;68.07
4346;BME280;2186;49.866;7.986;2023-06-22T10:35:12;99938.69;;;29.55;69.07
4346;BME280;2186;49.866;7.986;2023-06-22T10:37:45;99944.34;;;29.62;68.50
4346;BME280;2186;49.866;7.986;2023-06-22T10:40:13;99936.66;;;30.04;67.41
4346;BME280;2186;49.866;7.986;2023-06-22T10:42:40;99936.34;;;30.38;65.88
4346;BME280;2186;49.866;7.986;2023-06-22T10:45:08;99933.47;;;30.32;65.52
4346;BME280;2186;49.866;7.986;2023-06-22T10:47:36;99926.44;;;29.90;64.02
4346;BME280;2186;49.866;7.986;2023-06-22T10:50:03;99918.72;;;30.64;64.49
4346;BME280;2186;49.866;7.986;2023-06-22T10:52:30;99930.00;;;30.92;63.38
4346;BME280;2186;49.866;7.986;2023-06-22T10:54:56;99914.75;;;30.35;63.19
4346;BME280;2186;49.866;7.986;2023-06-22T10:57:23;99913.31;;;30.17;63.48
4346;BME280;2186;49.866;7.986;2023-06-22T10:59:49;99905.94;;;30.94;62.21
4346;BME280;2186;49.866;7.986;2023-06-22T11:02:16;99899.09;;;30.75;61.73
4346;BME280;2186;49.866;7.986;2023-06-22T11:04:42;99897.16;;;31.21;60.30
4346;BME280;2186;49.866;7.986;2023-06-22T11:07:09;99888.19;;;31.42;58.70
4346;BME280;2186;49.866;7.986;2023-06-22T11:09:36;99900.63;;;31.68;58.63
4346;BME280;2186;49.866;7.986;2023-06-22T11:12:02;99906.59;;;31.57;59.44
4346;BME280;2186;49.866;7.986;2023-06-22T11:14:29;99904.09;;;31.47;57.70
4346;BME280;2186;49.866;7.986;2023-06-22T11:16:55;99901.75;;;31.59;57.97
4346;BME280;2186;49.866;7.986;2023-06-22T11:19:23;99892.28;;;31.76;57.65
4346;BME280;2186;49.866;7.986;2023-06-22T11:21:49;99886.88;;;31.97;57.13
4346;BME280;2186;49.866;7.986;2023-06-22T11:24:17;99891.97;;;32.00;55.85
4346;BME280;2186;49.866;7.986;2023-06-22T11:26:43;99901.59;;;31.22;56.60
4346;BME280;2186;49.866;7.986;2023-06-22T11:29:10;99891.91;;;31.94;56.58
4346;BME280;2186;49.866;7.986;2023-06-22T11:31:53;99887.63;;;31.62;56.36
4346;BME280;2186;49.866;7.986;2023-06-22T11:34:19;99888.84;;;31.44;58.18
4346;BME280;2186;49.866;7.986;2023-06-22T11:36:46;99871.59;;;31.50;57.79
4346;BME280;2186;49.866;7.986;2023-06-22T11:39:14;99862.03;;;31.32;57.68
4346;BME280;2186;49.866;7.986;2023-06-22T11:41:41;99862.50;;;31.65;57.77
4346;BME280;2186;49.866;7.986;2023-06-22T11:44:08;99863.00;;;31.83;57.22
4346;BME280;2186;49.866;7.986;2023-06-22T11:46:35;99856.28;;;32.07;56.00
4346;BME280;2186;49.866;7.986;2023-06-22T11:49:01;99858.75;;;32.17;55.74
4346;BME280;2186;49.866;7.986;2023-06-22T11:51:28;99848.88;;;31.86;56.39
4346;BME280;2186;49.866;7.986;2023-06-22T11:53:55;99864.25;;;31.80;57.10
4346;BME280;2186;49.866;7.986;2023-06-22T11:56:21;99857.69;;;31.81;56.08
4346;BME280;2186;49.866;7.986;2023-06-22T11:58:48;99856.63;;;31.97;55.94
4346;BME280;2186;49.866;7.986;2023-06-22T12:01:14;99849.31;;;31.60;57.20
4346;BME280;2186;49.866;7.986;2023-06-22T12:03:41;99845.94;;;32.24;55.87
4346;BME280;2186;49.866;7.986;2023-06-22T12:06:10;99846.81;;;32.46;52.26
4346;BME280;2186;49.866;7.986;2023-06-22T12:08:37;99853.50;;;32.79;53.28
4346;BME280;2186;49.866;7.986;2023-06-22T12:11:05;99837.97;;;32.71;53.56
4346;BME280;2186;49.866;7.986;2023-06-22T12:13:31;99836.66;;;32.46;54.20
4346;BME280;2186;49.866;7.986;2023-06-22T12:15:58;99834.19;;;32.51;53.52
4346;BME280;2186;49.866;7.986;2023-06-22T12:18:24;99829.31;;;32.53;54.60
4346;BME280;2186;49.866;7.986;2023-06-22T12:20:51;99825.75;;;32.81;51.35
4346;BME280;2186;49.866;7.986;2023-06-22T12:23:17;99822.44;;;32.64;50.29
4346;BME280;2186;49.866;7.986;2023-06-22T12:25:44;99805.13;;;32.91;49.77
4346;BME280;2186;49.866;7.986;2023-06-22T12:28:11;99809.06;;;32.61;49.32
4346;BME280;2186;49.866;7.986;2023-06-22T12:30:37;99806.72;;;33.07;50.41
4346;BME280;2186;49.866;7.986;2023-06-22T12:33:04;99803.81;;;32.87;50.27
4346;BME280;2186;49.866;7.986;2023-06-22T12:35:30;99812.31;;;32.71;50.42
4346;BME280;2186;49.866;7.986;2023-06-22T12:37:57;99790.09;;;32.72;50.28
4346;BME280;2186;49.866;7.986;2023-06-22T12:40:23;99787.06;;;33.17;50.83
4346;BME280;2186;49.866;7.986;2023-06-22T12:42:50;99798.97;;;33.17;48.94
4346;BME280;2186;49.866;7.986;2023-06-22T12:45:17;99792.19;;;33.54;49.08
4346;BME280;2186;49.866;7.986;2023-06-22T12:47:43;99795.19;;;33.66;48.01
4346;BME280;2186;49.866;7.986;2023-06-22T12:50:09;99793.22;;;33.53;46.81
4346;BME280;2186;49.866;7.986;2023-06-22T12:52:37;99790.38;;;33.81;47.92
4346;BME280;2186;49.866;7.986;2023-06-22T12:55:07;99783.69;;;33.49;46.76
4346;BME280;2186;49.866;7.986;2023-06-22T12:57:34;99782.41;;;33.52;48.00
4346;BME280;2186;49.866;7.986;2023-06-22T13:00:00;99771.59;;;33.50;46.52
4346;BME280;2186;49.866;7.986;2023-06-22T13:02:27;99768.56;;;33.39;46.51
4346;BME280;2186;49.866;7.986;2023-06-22T13:04:54;99772.47;;;33.57;47.33
4346;BME280;2186;49.866;7.986;2023-06-22T13:07:20;99765.03;;;33.58;46.80
4346;BME280;2186;49.866;7.986;2023-06-22T13:09:50;99761.69;;;33.63;48.03
4346;BME280;2186;49.866;7.986;2023-06-22T13:12:20;99760.16;;;33.53;46.46
4346;BME280;2186;49.866;7.986;2023-06-22T13:14:47;99755.06;;;33.57;45.15
4346;BME280;2186;49.866;7.986;2023-06-22T13:17:14;99748.13;;;33.68;44.85
4346;BME280;2186;49.866;7.986;2023-06-22T13:19:41;99749.38;;;33.65;46.49
4346;BME280;2186;49.866;7.986;2023-06-22T13:22:28;99753.19;;;33.64;45.04